Skip to main content.
Our real time weather data display below is updated continuously via our 24/7 live data feed.
 TIME   TEMPERATURE   WINDSPEED   DIRECTION   HUMIDITY   BAROMETER   RAINFALL 
19:25 27.0°C (80.6°F) 14.8 kmh (9.2 mph) NE 69% 1019.0hPa (30.09 inHg) 0.0mm (0.00 in.)
18:25 28.0°C (82.4 °F) 7.4 kmh (4.6 mph) NE 61% 1019.0hPa (30.09 inHg) 0.0mm (0.00 in.)
17:25 28.0°C (82.4 °F) 13.0 kmh (8.1 mph) E 65% 1020.0hPa (30.12 inHg) 0.0mm (0.00 in.)
16:25 29.0°C (84.2 °F) 13.0 kmh (8.1 mph) NNE 58% 1020.0hPa (30.12 inHg) 0.0mm (0.00 in.)
15:25 28.0°C (82.4 °F) 11.1 kmh (6.9 mph) SW 58% 1020.0hPa (30.12 inHg) 0.0mm (0.00 in.)
14:25 29.0°C (84.2 °F) 11.1 kmh (6.9 mph) SSW 54% 1020.0hPa (30.12 inHg) 0.0mm (0.00 in.)
13:25 28.0°C (82.4 °F) 11.1 kmh (6.9 mph) SW 61% 1020.0hPa (30.12 inHg) 0.0mm (0.00 in.)
12:25 28.0°C (82.4 °F) 9.3 kmh (5.8 mph) SSW 61% 1020.0hPa (30.12 inHg) 0.0mm (0.00 in.)
11:25 28.0°C (82.4 °F) 13.0 kmh (8.1 mph) S 61% 1020.0hPa (30.12 inHg) 0.0mm (0.00 in.)
10:25 27.0°C (80.6 °F) 5.6 kmh (3.5 mph) E 65% 1020.0hPa (30.12 inHg) 0.0mm (0.00 in.)
9:25 26.0°C (78.8 °F) 7.4 kmh (4.6 mph) E 73% 1020.0hPa (30.12 inHg) 0.0mm (0.00 in.)
8:25 24.0°C (75.2 °F) 5.6 kmh (3.5 mph) E 88% 1020.0hPa (30.12 inHg) 0.0mm (0.00 in.)
7:25 22.0°C (71.6 °F) 1.9 kmh (1.2 mph) NW 94% 1019.0hPa (30.09 inHg) 0.0mm (0.00 in.)
6:25 22.0°C (71.6 °F) 3.7 kmh (2.3 mph) N 94% 1019.0hPa (30.09 inHg) 0.0mm (0.00 in.)
5:25 22.0°C (71.6 °F) 3.7 kmh (2.3 mph) NNW 88% 1019.0hPa (30.09 inHg) 0.0mm (0.00 in.)
4:25 23.0°C (73.4 °F) 1.9 kmh (1.2 mph) WNW 83% 1019.0hPa (30.09 inHg) 0.0mm (0.00 in.)
3:25 23.0°C (73.4 °F) 7.4 kmh (4.6 mph) NNW 83% 1019.0hPa (30.09 inHg) 0.0mm (0.00 in.)
2:25 23.0°C (73.4 °F) 5.6 kmh (3.5 mph) NNW 83% 1019.0hPa (30.09 inHg) 0.0mm (0.00 in.)
1:25 23.0°C (73.4 °F) 5.6 kmh (3.5 mph) W 83% 1020.0hPa (30.12 inHg) 0.0mm (0.00 in.)
0:25 24.0°C (75.2 °F) 1.9 kmh (1.2 mph) SW 78% 1020.0hPa (30.12 inHg) 0.0mm (0.00 in.)
23:25 24.0°C (75.2 °F) 3.7 kmh (2.3 mph) WSW 78% 1020.0hPa (30.12 inHg) 0.0mm (0.00 in.)
22:25 24.0°C (75.2 °F) 5.6 kmh (3.5 mph) SW 78% 1019.0hPa (30.09 inHg) 0.0mm (0.00 in.)
21:25 25.0°C (77.0 °F) 7.4 kmh (4.6 mph) SW 69% 1019.0hPa (30.09 inHg) 0.0mm (0.00 in.)
20:25 26.0°C (78.8 °F) 11.1 kmh (6.9 mph) SW 65% 1019.0hPa (30.09 inHg) 0.0mm (0.00 in.)